createdAt,value
2022-12-01T07:02:52.985Z,9.43
2022-12-01T07:05:19.610Z,8.83
2022-12-01T07:07:46.334Z,8.73
2022-12-01T07:10:14.164Z,9.38
2022-12-01T07:12:40.816Z,11.77
2022-12-01T07:15:09.021Z,13.15
2022-12-01T07:17:35.988Z,11.13
2022-12-01T07:20:04.075Z,12.00
2022-12-01T07:22:32.802Z,12.43
2022-12-01T07:24:59.615Z,12.45
2022-12-01T07:27:29.704Z,12.45
2022-12-01T07:29:56.096Z,13.53
2022-12-01T07:32:22.596Z,12.77
2022-12-01T07:34:49.111Z,11.52
2022-12-01T07:37:15.622Z,11.95
2022-12-01T07:39:42.070Z,12.90
2022-12-01T07:42:08.620Z,11.67
2022-12-01T07:44:35.130Z,14.38
2022-12-01T07:47:01.575Z,13.05
2022-12-01T07:49:28.288Z,12.48
2022-12-01T07:51:54.712Z,13.27
2022-12-01T07:54:21.412Z,13.03
2022-12-01T07:56:47.896Z,14.43
2022-12-01T07:59:14.434Z,14.20
2022-12-01T08:01:44.484Z,14.80
2022-12-01T08:04:12.080Z,13.32
2022-12-01T08:06:38.594Z,15.23
2022-12-01T08:09:05.148Z,14.80
2022-12-01T08:11:31.682Z,15.00
2022-12-01T08:13:58.505Z,14.38
2022-12-01T08:16:25.458Z,14.13
2022-12-01T08:18:52.895Z,13.60
2022-12-01T08:21:21.689Z,14.43
2022-12-01T08:23:48.629Z,12.93
2022-12-01T08:26:17.953Z,14.55
2022-12-01T08:28:45.481Z,14.30
2022-12-01T08:31:22.752Z,14.17
2022-12-01T08:33:51.106Z,15.35
2022-12-01T08:36:18.306Z,15.00
2022-12-01T08:38:45.988Z,14.68
2022-12-01T08:41:13.631Z,12.02
2022-12-01T08:43:57.320Z,15.83
2022-12-01T08:46:26.232Z,12.23
2022-12-01T08:48:55.068Z,11.35
2022-12-01T08:51:21.622Z,13.75
2022-12-01T08:53:49.485Z,15.70
2022-12-01T08:56:17.513Z,13.20
2022-12-01T08:58:44.069Z,14.05
2022-12-01T09:01:13.055Z,13.00
2022-12-01T09:03:40.514Z,14.60
2022-12-01T09:06:13.489Z,15.13
2022-12-01T09:08:40.260Z,15.23
2022-12-01T09:11:11.682Z,15.55
2022-12-01T09:13:39.676Z,16.25
2022-12-01T09:16:10.320Z,14.75
2022-12-01T09:18:37.360Z,13.70
2022-12-01T09:21:19.001Z,14.73
2022-12-01T09:23:46.009Z,14.75
2022-12-01T09:26:14.018Z,14.65
2022-12-01T09:28:40.585Z,16.08
2022-12-01T09:31:09.287Z,14.02
2022-12-01T09:33:36.330Z,16.20
2022-12-01T09:36:04.059Z,15.20
2022-12-01T09:38:32.107Z,14.32
2022-12-01T09:41:05.864Z,13.65
2022-12-01T09:43:49.362Z,15.15
2022-12-01T09:46:20.458Z,15.63
2022-12-01T09:48:49.678Z,15.15
2022-12-01T09:51:19.129Z,15.57
2022-12-01T09:53:48.489Z,16.35
2022-12-01T09:56:22.793Z,14.30
2022-12-01T09:58:53.937Z,14.33
2022-12-01T10:01:27.398Z,14.50
2022-12-01T10:03:59.168Z,15.57
2022-12-01T10:06:44.470Z,15.60
2022-12-01T10:09:29.949Z,15.55
2022-12-01T10:12:20.604Z,15.23
2022-12-01T10:14:48.616Z,15.52
2022-12-01T10:17:33.099Z,14.38
2022-12-01T10:20:10.777Z,16.80
2022-12-01T10:23:18.211Z,16.30
2022-12-01T10:26:14.648Z,14.93
2022-12-01T10:28:50.486Z,14.25
2022-12-01T10:31:23.699Z,15.50
2022-12-01T10:33:59.598Z,16.65
2022-12-01T10:36:28.388Z,12.40
2022-12-01T10:38:55.183Z,15.93
2022-12-01T10:41:23.821Z,13.85
2022-12-01T10:44:00.722Z,16.63
2022-12-01T10:46:49.151Z,15.18
2022-12-01T10:49:17.525Z,13.00
2022-12-01T10:51:56.577Z,15.40
2022-12-01T10:54:32.588Z,16.63
2022-12-01T10:56:59.490Z,14.93
2022-12-01T10:59:46.696Z,15.82
2022-12-01T11:02:22.107Z,15.73
2022-12-01T11:05:01.169Z,16.57
2022-12-01T11:07:35.105Z,16.30
2022-12-01T11:10:19.535Z,16.25
2022-12-01T11:12:55.906Z,15.27
2022-12-01T11:15:38.410Z,15.50
2022-12-01T11:18:26.548Z,15.63
2022-12-01T11:21:27.902Z,15.90
2022-12-01T11:23:56.555Z,14.38
2022-12-01T12:22:55.431Z,13.50
2022-12-01T12:49:19.778Z,13.20
2022-12-01T13:20:23.923Z,12.02
2022-12-01T13:27:50.806Z,12.13
2022-12-01T13:34:26.186Z,10.55
2022-12-01T13:41:45.397Z,12.30
2022-12-01T13:48:00.282Z,11.63
2022-12-01T13:55:09.430Z,11.85
2022-12-01T14:02:08.503Z,10.60
2022-12-01T14:04:35.128Z,11.20
2022-12-01T14:12:02.701Z,12.50
2022-12-01T14:14:36.926Z,9.15
2022-12-01T14:17:04.524Z,11.93
2022-12-01T14:24:41.524Z,11.05
2022-12-01T14:27:11.771Z,11.63
2022-12-01T14:29:42.656Z,12.38
2022-12-01T14:32:22.425Z,11.88
2022-12-01T14:39:03.402Z,11.05
2022-12-01T14:45:18.735Z,10.88
2022-12-01T14:47:52.592Z,8.80
2022-12-01T14:50:51.937Z,11.97
2022-12-01T14:57:17.570Z,10.55
2022-12-01T15:03:48.260Z,11.77
2022-12-01T15:10:16.246Z,11.07
2022-12-01T15:12:42.778Z,11.18
2022-12-01T15:15:22.292Z,11.07
2022-12-01T15:18:57.684Z,11.57
2022-12-01T15:21:31.080Z,10.03
2022-12-01T15:24:03.352Z,11.00
2022-12-01T15:30:19.236Z,9.70
2022-12-01T15:36:42.280Z,10.17
2022-12-01T15:42:59.540Z,10.65
2022-12-01T15:53:07.332Z,11.53
2022-12-01T15:55:36.125Z,10.70
2022-12-01T15:58:07.628Z,11.20
2022-12-01T16:00:34.613Z,11.18
2022-12-01T16:03:48.013Z,10.32
2022-12-01T16:06:14.632Z,10.33
2022-12-01T16:09:30.136Z,10.05
2022-12-01T16:15:58.521Z,9.90
2022-12-01T16:22:22.028Z,9.00
2022-12-01T16:25:00.659Z,9.25
2022-12-01T16:27:30.022Z,9.70
2022-12-01T16:30:08.719Z,10.55
2022-12-01T16:36:43.706Z,9.73
2022-12-01T16:39:10.204Z,9.57
2022-12-01T16:41:41.151Z,10.02
2022-12-01T16:46:56.644Z,9.88
2022-12-01T16:49:24.623Z,9.53
2022-12-01T16:51:56.492Z,9.27
2022-12-01T16:54:23.550Z,9.18
2022-12-01T16:56:50.196Z,8.75
2022-12-01T16:59:16.675Z,9.32
2022-12-01T17:01:43.232Z,9.73
2022-12-01T17:04:09.792Z,9.20
2022-12-01T17:06:38.356Z,9.70
2022-12-01T17:09:05.740Z,9.90
2022-12-01T17:11:32.476Z,14.75
2022-12-01T17:13:59.081Z,17.83
2022-12-01T17:16:25.607Z,15.27
2022-12-01T17:18:52.194Z,11.35
2022-12-01T17:21:18.941Z,11.48
2022-12-01T17:23:45.428Z,10.40
2022-12-01T17:26:14.725Z,10.80
2022-12-01T17:28:41.940Z,9.15
2022-12-01T17:31:09.471Z,9.32
2022-12-01T17:33:36.655Z,8.80
2022-12-01T17:36:13.607Z,9.40
2022-12-01T17:38:41.997Z,10.77
2022-12-01T17:41:15.628Z,10.57
2022-12-01T17:43:42.490Z,10.02
2022-12-01T17:46:11.815Z,10.07
2022-12-01T17:48:41.691Z,9.82
2022-12-01T17:51:09.011Z,9.90
2022-12-01T17:53:36.674Z,10.00
2022-12-01T17:56:10.204Z,9.15
2022-12-01T17:58:37.395Z,11.43
2022-12-01T18:01:05.139Z,11.07
2022-12-01T18:03:32.363Z,12.70
2022-12-01T18:06:01.131Z,11.70
2022-12-01T18:08:29.708Z,11.95
2022-12-01T18:11:01.173Z,10.80
2022-12-01T18:13:27.774Z,9.32
2022-12-01T18:15:55.407Z,8.73
2022-12-01T18:18:21.943Z,11.13
2022-12-01T18:20:48.412Z,10.10
2022-12-01T18:23:14.868Z,10.45
2022-12-01T18:25:41.364Z,9.55
2022-12-01T18:28:10.816Z,9.07
2022-12-01T18:30:38.686Z,8.75
2022-12-01T18:33:06.551Z,8.95
2022-12-01T18:35:33.074Z,8.77
2022-12-01T18:37:59.493Z,9.73
2022-12-01T18:40:25.950Z,10.20
2022-12-01T18:42:52.477Z,13.57
2022-12-01T18:45:21.255Z,12.52
2022-12-01T18:47:48.102Z,10.98
2022-12-01T18:50:14.858Z,9.40
2022-12-01T18:52:41.448Z,8.77
2022-12-01T18:55:08.228Z,9.77
2022-12-01T18:57:34.827Z,10.55
2022-12-01T19:00:01.828Z,10.88
2022-12-01T19:02:28.459Z,11.55
2022-12-01T19:04:54.974Z,10.20
2022-12-01T19:07:25.240Z,11.18
2022-12-01T19:09:55.942Z,10.50
2022-12-01T19:12:22.406Z,10.85
2022-12-01T19:14:49.121Z,11.00
2022-12-01T19:17:15.748Z,9.17
2022-12-01T19:19:42.236Z,9.45
2022-12-01T19:22:08.742Z,9.57
2022-12-01T19:24:35.268Z,9.98
2022-12-01T19:27:01.792Z,10.13
2022-12-01T19:29:28.435Z,10.03
2022-12-01T19:31:55.399Z,9.10
2022-12-01T19:34:22.188Z,9.27
2022-12-01T19:36:49.848Z,11.63
2022-12-01T19:39:16.374Z,12.07
2022-12-01T19:41:43.063Z,12.80
2022-12-01T19:44:11.238Z,12.43
2022-12-01T19:46:37.782Z,13.10
2022-12-01T19:49:05.704Z,11.88
2022-12-01T19:51:35.298Z,12.15
2022-12-01T19:54:03.019Z,12.90
2022-12-01T19:56:29.548Z,12.13
2022-12-01T19:58:57.288Z,12.23
2022-12-01T20:01:23.916Z,12.65
2022-12-01T20:03:52.214Z,14.25
2022-12-01T20:10:53.925Z,13.07
2022-12-01T20:13:20.565Z,12.57
2022-12-01T20:15:46.989Z,11.98
2022-12-01T20:18:14.868Z,13.13
2022-12-01T20:20:41.528Z,14.43
2022-12-01T20:23:08.265Z,13.60
2022-12-01T20:25:34.813Z,13.02
2022-12-01T20:28:01.473Z,12.05
2022-12-01T20:30:27.969Z,11.95
2022-12-01T20:32:54.388Z,12.70
2022-12-01T20:35:20.889Z,15.13
2022-12-01T20:37:47.322Z,15.40
2022-12-01T20:40:13.817Z,16.42
2022-12-01T20:42:40.385Z,14.65
2022-12-01T20:45:07.515Z,14.00
2022-12-01T20:47:36.732Z,13.23
2022-12-01T20:50:05.742Z,12.98
2022-12-01T20:52:32.256Z,12.80
2022-12-01T20:54:58.850Z,13.98
2022-12-01T20:57:25.396Z,12.13
2022-12-01T20:59:52.124Z,12.65
2022-12-01T21:02:18.637Z,13.55
2022-12-01T21:05:12.389Z,12.45
2022-12-01T21:07:38.976Z,13.18
2022-12-01T21:10:06.463Z,13.77
2022-12-01T21:12:51.594Z,13.32
2022-12-01T21:15:25.434Z,12.43
2022-12-01T21:18:08.872Z,13.60
2022-12-01T21:20:44.076Z,13.18
2022-12-01T21:23:12.985Z,12.97
2022-12-01T21:25:40.729Z,12.80
2022-12-01T21:28:19.005Z,12.88
2022-12-01T21:30:49.763Z,12.30
2022-12-01T21:33:28.586Z,14.02
2022-12-01T21:35:55.857Z,13.30
2022-12-01T21:38:22.903Z,13.38
2022-12-01T21:40:49.553Z,12.20
2022-12-01T21:43:24.696Z,13.32
2022-12-01T21:45:58.045Z,14.02
2022-12-01T21:48:24.806Z,13.20
2022-12-01T21:50:59.566Z,12.98
2022-12-01T21:53:32.166Z,14.05
2022-12-01T21:55:58.661Z,13.77
2022-12-01T21:58:31.068Z,13.95
2022-12-01T22:00:58.969Z,14.13
2022-12-01T22:04:02.901Z,14.98
2022-12-01T22:06:38.675Z,13.90
2022-12-01T22:09:33.394Z,14.02
2022-12-01T22:12:13.761Z,14.25
2022-12-01T22:14:40.244Z,13.63
2022-12-01T22:17:06.678Z,13.23
2022-12-01T22:19:35.807Z,13.60
2022-12-01T22:22:09.517Z,13.65
2022-12-01T22:24:41.033Z,13.63
2022-12-01T22:27:38.172Z,14.40
2022-12-01T22:30:07.843Z,13.48
2022-12-01T22:32:59.243Z,14.25
2022-12-01T22:35:45.254Z,13.70
2022-12-01T22:38:37.799Z,14.07
2022-12-01T22:41:09.154Z,13.83
2022-12-01T22:43:47.429Z,13.93
2022-12-01T22:46:34.597Z,13.32
2022-12-01T22:49:03.249Z,14.30
2022-12-01T22:51:42.174Z,11.23
2022-12-01T22:54:14.658Z,14.23
2022-12-01T22:56:46.951Z,14.43
2022-12-01T22:59:13.758Z,15.00
2022-12-01T23:01:48.064Z,14.95
2022-12-01T23:04:39.938Z,14.55
2022-12-01T23:07:41.498Z,14.20
2022-12-01T23:10:17.220Z,14.73
2022-12-01T23:12:45.723Z,16.25
2022-12-01T23:15:17.909Z,15.15
2022-12-01T23:17:44.551Z,13.57
2022-12-01T23:20:11.108Z,15.80
2022-12-01T23:22:38.317Z,15.55
2022-12-01T23:25:16.881Z,15.43
2022-12-01T23:27:45.290Z,16.00
2022-12-01T23:30:13.079Z,16.95
2022-12-01T23:32:40.034Z,15.53
2022-12-01T23:35:18.869Z,16.45
2022-12-01T23:37:48.249Z,16.70
2022-12-01T23:40:31.349Z,16.13
2022-12-01T23:43:12.889Z,18.45
2022-12-01T23:45:39.383Z,16.33
2022-12-01T23:48:13.816Z,16.60
2022-12-01T23:50:40.348Z,17.35
2022-12-01T23:53:32.976Z,17.63
2022-12-01T23:56:11.398Z,16.45
2022-12-01T23:58:37.927Z,18.17
